Time;durP1;ratioP1;P1;durP2;ratioP2;P2;SDS_P1;SDS_P2;PMS_P1;PMS_P2;Temp;Humidity;BMP_temperature;BMP_pressure;BME280_temperature;BME280_humidity;BME280_pressure;Samples;Min_cycle;Max_cycle;Signal;HPM_P1;HPM_P2
2022/11/30 00:01:46;;;;;;;32.87;18.03;;;;;;;;;;4872873;29;20258;-63
2022/11/30 00:04:12;;;;;;;29.83;18.00;;;;;;;;;;4871822;29;20175;-63
2022/11/30 00:06:42;;;;;;;35.97;18.50;;;;;;;;;;4870622;29;20642;-64
2022/11/30 00:09:25;;;;;;;32.33;17.90;;;;;;;;;;4856244;29;20710;-63
2022/11/30 00:11:51;;;;;;;32.97;17.37;;;;;;;;;;4868563;29;20262;-63
2022/11/30 00:14:49;;;;;;;32.77;16.87;;;;;;;;;;4869296;29;20404;-65
2022/11/30 00:17:22;;;;;;;32.10;17.27;;;;;;;;;;4838511;29;20203;-63
2022/11/30 00:19:48;;;;;;;28.50;16.33;;;;;;;;;;4868275;29;20961;-63
2022/11/30 00:22:14;;;;;;;28.80;17.27;;;;;;;;;;4868982;29;20665;-63
2022/11/30 00:24:40;;;;;;;28.20;16.80;;;;;;;;;;4869446;29;20215;-63
2022/11/30 00:27:13;;;;;;;30.20;17.77;;;;;;;;;;4871784;29;20239;-63
2022/11/30 00:29:39;;;;;;;27.10;15.43;;;;;;;;;;4868878;29;20183;-64
2022/11/30 00:32:06;;;;;;;27.93;17.60;;;;;;;;;;4871420;29;20190;-63
2022/11/30 00:34:32;;;;;;;29.87;16.50;;;;;;;;;;4855641;29;20192;-64
2022/11/30 00:36:58;;;;;;;35.57;18.67;;;;;;;;;;4855381;29;20270;-64
2022/11/30 00:39:24;;;;;;;32.17;16.23;;;;;;;;;;4871234;29;20674;-63
2022/11/30 00:41:50;;;;;;;25.97;15.23;;;;;;;;;;4869715;29;20665;-63
2022/11/30 00:44:16;;;;;;;28.47;16.87;;;;;;;;;;4865798;29;20781;-64
2022/11/30 00:46:43;;;;;;;28.87;16.17;;;;;;;;;;4854861;29;20738;-63
2022/11/30 00:49:15;;;;;;;27.30;15.90;;;;;;;;;;4872931;29;20191;-64
2022/11/30 00:51:44;;;;;;;28.60;16.53;;;;;;;;;;4851894;29;20242;-64
2022/11/30 00:54:16;;;;;;;28.90;16.60;;;;;;;;;;4871371;29;20244;-64
2022/11/30 00:56:43;;;;;;;34.00;17.83;;;;;;;;;;4871006;29;20183;-63
2022/11/30 00:59:09;;;;;;;30.50;15.83;;;;;;;;;;4868060;29;20203;-63
2022/11/30 01:01:35;;;;;;;30.53;16.90;;;;;;;;;;4869742;29;20228;-64
2022/11/30 01:04:17;;;;;;;27.80;16.90;;;;;;;;;;4869643;29;20266;-64
2022/11/30 01:06:43;;;;;;;30.70;16.90;;;;;;;;;;4871443;29;20183;-63
2022/11/30 01:09:09;;;;;;;27.87;16.17;;;;;;;;;;4869676;29;20745;-63
2022/11/30 01:11:35;;;;;;;29.00;17.37;;;;;;;;;;4870738;29;20195;-63
2022/11/30 01:14:01;;;;;;;32.87;17.23;;;;;;;;;;4851652;29;20187;-63
2022/11/30 01:16:31;;;;;;;25.63;15.60;;;;;;;;;;4856403;29;20626;-63
2022/11/30 01:18:57;;;;;;;29.03;16.53;;;;;;;;;;4874501;29;20199;-63
2022/11/30 01:21:24;;;;;;;29.50;17.30;;;;;;;;;;4877682;29;20273;-63
2022/11/30 01:23:50;;;;;;;28.67;16.67;;;;;;;;;;4871031;29;20199;-63
2022/11/30 01:26:17;;;;;;;29.63;17.77;;;;;;;;;;4875629;29;20187;-63
2022/11/30 01:28:43;;;;;;;31.63;16.80;;;;;;;;;;4873634;29;20183;-63
2022/11/30 01:31:10;;;;;;;30.33;17.57;;;;;;;;;;4872339;29;20195;-63
2022/11/30 01:33:36;;;;;;;29.50;18.20;;;;;;;;;;4872787;29;20256;-63
2022/11/30 01:36:04;;;;;;;31.27;17.47;;;;;;;;;;4873120;29;20193;-63
2022/11/30 01:38:38;;;;;;;31.27;17.67;;;;;;;;;;4857651;29;20218;-63
2022/11/30 01:41:04;;;;;;;36.53;18.80;;;;;;;;;;4855551;29;20247;-63
2022/11/30 01:43:44;;;;;;;33.77;17.57;;;;;;;;;;4872885;29;21013;-63
2022/11/30 01:46:21;;;;;;;31.43;16.63;;;;;;;;;;4872741;29;20290;-63
2022/11/30 01:48:53;;;;;;;33.33;18.77;;;;;;;;;;4874612;29;20354;-63
2022/11/30 01:51:19;;;;;;;33.77;18.70;;;;;;;;;;4871574;29;20184;-63
2022/11/30 01:53:45;;;;;;;31.17;18.83;;;;;;;;;;4873039;29;20190;-63
2022/11/30 01:56:11;;;;;;;34.57;19.73;;;;;;;;;;4851784;29;20184;-63
2022/11/30 01:58:37;;;;;;;36.17;19.77;;;;;;;;;;4870126;29;20206;-63
2022/11/30 02:01:03;;;;;;;37.33;20.33;;;;;;;;;;4871142;29;20379;-63
2022/11/30 02:03:34;;;;;;;34.67;18.83;;;;;;;;;;4868224;29;20290;-63
2022/11/30 02:06:00;;;;;;;36.07;19.77;;;;;;;;;;4870612;29;20222;-63
2022/11/30 02:08:27;;;;;;;38.70;19.93;;;;;;;;;;4865646;29;20606;-63
2022/11/30 02:10:54;;;;;;;31.57;18.13;;;;;;;;;;4871468;29;20257;-64
2022/11/30 02:13:20;;;;;;;39.90;20.07;;;;;;;;;;4873014;29;20248;-63
2022/11/30 02:15:53;;;;;;;33.87;18.17;;;;;;;;;;4871540;29;20322;-63
2022/11/30 02:18:23;;;;;;;32.03;19.43;;;;;;;;;;4879334;29;20210;-63
2022/11/30 02:21:07;;;;;;;31.80;18.40;;;;;;;;;;4869754;29;20262;-63
2022/11/30 02:23:54;;;;;;;30.47;19.20;;;;;;;;;;4867160;29;20183;-63
2022/11/30 02:26:39;;;;;;;30.03;16.37;;;;;;;;;;4872293;29;20219;-63
2022/11/30 02:29:22;;;;;;;29.63;17.17;;;;;;;;;;4870804;29;20290;-63
2022/11/30 02:31:59;;;;;;;29.83;17.30;;;;;;;;;;4867446;29;20191;-63
2022/11/30 02:34:27;;;;;;;30.27;18.00;;;;;;;;;;4854090;29;20721;-63
2022/11/30 02:36:54;;;;;;;32.80;17.90;;;;;;;;;;4859825;29;20214;-63
2022/11/30 02:39:21;;;;;;;27.53;17.00;;;;;;;;;;4862438;29;20239;-63
2022/11/30 02:41:47;;;;;;;29.17;18.00;;;;;;;;;;4871079;29;20187;-63
2022/11/30 02:44:14;;;;;;;26.03;17.20;;;;;;;;;;4853976;29;20298;-63
2022/11/30 02:46:43;;;;;;;27.00;18.00;;;;;;;;;;4872324;29;20187;-63
2022/11/30 02:49:35;;;;;;;26.23;16.77;;;;;;;;;;4872695;29;20216;-63
2022/11/30 02:52:02;;;;;;;24.00;15.63;;;;;;;;;;4849354;29;20696;-64
2022/11/30 02:54:28;;;;;;;29.53;18.37;;;;;;;;;;4854475;29;20344;-63
2022/11/30 02:56:54;;;;;;;25.10;17.73;;;;;;;;;;4855937;29;20427;-63
2022/11/30 02:59:20;;;;;;;25.43;17.17;;;;;;;;;;4870850;29;20211;-63
2022/11/30 03:01:46;;;;;;;24.50;16.97;;;;;;;;;;4871582;29;20190;-63
2022/11/30 03:04:12;;;;;;;24.60;17.10;;;;;;;;;;4871628;29;20500;-63
2022/11/30 03:06:38;;;;;;;26.07;18.67;;;;;;;;;;4854107;29;20190;-63
2022/11/30 03:09:04;;;;;;;24.60;18.23;;;;;;;;;;4871506;29;20190;-63
2022/11/30 03:11:30;;;;;;;25.33;18.37;;;;;;;;;;4854206;29;20191;-63
2022/11/30 03:13:56;;;;;;;29.30;18.33;;;;;;;;;;4872053;29;20254;-63
2022/11/30 03:16:22;;;;;;;26.43;17.30;;;;;;;;;;4869730;29;20192;-63
2022/11/30 03:18:48;;;;;;;27.67;17.93;;;;;;;;;;4871565;29;20234;-63
2022/11/30 03:21:14;;;;;;;24.97;17.97;;;;;;;;;;4869397;29;20567;-63
2022/11/30 03:23:40;;;;;;;29.07;18.37;;;;;;;;;;4871069;29;20179;-64
2022/11/30 03:26:07;;;;;;;27.43;17.90;;;;;;;;;;4852602;29;20662;-63
2022/11/30 03:28:33;;;;;;;24.63;17.50;;;;;;;;;;4873249;29;20235;-63
2022/11/30 03:30:59;;;;;;;21.17;16.33;;;;;;;;;;4867526;29;20483;-64
2022/11/30 03:33:25;;;;;;;25.53;16.60;;;;;;;;;;4871004;29;20786;-63
2022/11/30 03:35:58;;;;;;;23.73;16.57;;;;;;;;;;4870004;29;20187;-63
2022/11/30 03:38:24;;;;;;;23.77;15.87;;;;;;;;;;4871774;29;20841;-63
2022/11/30 03:40:50;;;;;;;23.50;17.77;;;;;;;;;;4871196;29;20373;-64
2022/11/30 03:43:16;;;;;;;23.73;17.07;;;;;;;;;;4854046;29;20191;-64
2022/11/30 03:45:44;;;;;;;24.27;17.07;;;;;;;;;;4856695;29;20187;-64
2022/11/30 03:48:10;;;;;;;22.37;16.23;;;;;;;;;;4870546;29;20194;-64
2022/11/30 03:50:36;;;;;;;22.40;16.60;;;;;;;;;;4868855;29;20175;-64
2022/11/30 03:53:02;;;;;;;22.03;16.63;;;;;;;;;;4855739;29;20643;-64
2022/11/30 03:55:28;;;;;;;23.20;16.10;;;;;;;;;;4866099;29;20198;-64
2022/11/30 03:57:54;;;;;;;23.43;17.07;;;;;;;;;;4865857;29;20186;-64
2022/11/30 04:00:20;;;;;;;20.77;15.30;;;;;;;;;;4868209;29;20309;-64
2022/11/30 04:02:47;;;;;;;21.23;16.13;;;;;;;;;;4852236;29;20187;-64
2022/11/30 04:05:13;;;;;;;21.40;15.43;;;;;;;;;;4872173;29;20175;-64
2022/11/30 04:07:39;;;;;;;19.10;15.43;;;;;;;;;;4871549;29;20199;-64
2022/11/30 04:10:05;;;;;;;19.67;15.97;;;;;;;;;;4855331;29;20183;-64
2022/11/30 04:12:31;;;;;;;19.13;15.47;;;;;;;;;;4854891;29;20198;-64
2022/11/30 04:14:57;;;;;;;20.40;14.87;;;;;;;;;;4870970;29;20269;-64
2022/11/30 04:17:23;;;;;;;19.70;15.10;;;;;;;;;;4871176;29;20250;-64
2022/11/30 04:19:49;;;;;;;18.60;14.73;;;;;;;;;;4869426;29;20579;-64
2022/11/30 04:22:15;;;;;;;21.70;15.73;;;;;;;;;;4868023;29;20497;-64
2022/11/30 04:24:41;;;;;;;18.83;14.23;;;;;;;;;;4870473;29;20217;-64
2022/11/30 04:27:07;;;;;;;18.20;14.13;;;;;;;;;;4873071;29;20219;-64
2022/11/30 04:29:33;;;;;;;21.27;15.17;;;;;;;;;;4870961;29;20293;-64
2022/11/30 04:31:59;;;;;;;19.77;15.57;;;;;;;;;;4854624;29;20203;-64
2022/11/30 04:34:27;;;;;;;18.27;13.77;;;;;;;;;;4869699;29;20218;-64
2022/11/30 04:36:53;;;;;;;20.07;14.17;;;;;;;;;;4870340;29;21047;-64
2022/11/30 04:39:19;;;;;;;17.50;13.53;;;;;;;;;;4855035;29;20721;-64
2022/11/30 04:41:45;;;;;;;19.33;14.87;;;;;;;;;;4870272;29;21148;-64
2022/11/30 04:44:11;;;;;;;19.63;13.47;;;;;;;;;;4868849;29;20179;-64
2022/11/30 04:46:37;;;;;;;21.10;15.37;;;;;;;;;;4872341;29;20200;-64
2022/11/30 04:49:03;;;;;;;17.63;13.53;;;;;;;;;;4871183;29;20263;-64
2022/11/30 04:51:29;;;;;;;17.10;13.50;;;;;;;;;;4871827;29;20190;-64
2022/11/30 04:53:55;;;;;;;20.87;14.83;;;;;;;;;;4873709;29;20539;-64
2022/11/30 04:56:21;;;;;;;20.80;14.60;;;;;;;;;;4871011;29;20248;-64
2022/11/30 04:58:47;;;;;;;20.17;16.03;;;;;;;;;;4857354;29;20702;-64
2022/11/30 05:01:13;;;;;;;20.67;14.43;;;;;;;;;;4868109;29;20168;-64
2022/11/30 05:03:39;;;;;;;18.80;14.43;;;;;;;;;;4872651;29;20183;-64
2022/11/30 05:06:06;;;;;;;21.30;14.83;;;;;;;;;;4868295;29;20391;-63
2022/11/30 05:08:32;;;;;;;20.70;15.53;;;;;;;;;;4859312;29;20575;-64
2022/11/30 05:10:58;;;;;;;18.30;14.20;;;;;;;;;;4856232;29;20187;-63
2022/11/30 05:13:25;;;;;;;18.40;14.80;;;;;;;;;;4872605;29;20195;-63
2022/11/30 05:15:52;;;;;;;20.73;14.33;;;;;;;;;;4870717;29;20195;-63
2022/11/30 05:18:18;;;;;;;19.90;14.40;;;;;;;;;;4867583;29;20237;-63
2022/11/30 05:20:48;;;;;;;20.50;15.40;;;;;;;;;;4870952;29;20904;-63
2022/11/30 05:23:15;;;;;;;19.00;14.53;;;;;;;;;;4872833;29;20171;-64
2022/11/30 05:25:41;;;;;;;19.80;15.57;;;;;;;;;;4869310;29;21173;-64
2022/11/30 05:28:07;;;;;;;18.77;13.90;;;;;;;;;;4873338;29;20218;-64
2022/11/30 05:30:33;;;;;;;17.50;13.73;;;;;;;;;;4855849;29;20638;-64
2022/11/30 05:32:59;;;;;;;18.73;13.90;;;;;;;;;;4855150;29;20638;-64
2022/11/30 05:35:25;;;;;;;17.23;14.00;;;;;;;;;;4875975;29;20180;-64
2022/11/30 05:37:51;;;;;;;19.80;15.00;;;;;;;;;;4866998;29;20183;-64
2022/11/30 05:40:17;;;;;;;17.63;13.97;;;;;;;;;;4873152;29;20214;-64
2022/11/30 05:42:43;;;;;;;17.13;13.20;;;;;;;;;;4871832;29;20206;-64
2022/11/30 05:45:10;;;;;;;18.27;13.80;;;;;;;;;;4872188;29;20187;-64
2022/11/30 05:47:44;;;;;;;18.87;13.00;;;;;;;;;;4873641;29;20198;-64
2022/11/30 05:50:18;;;;;;;19.23;13.93;;;;;;;;;;4856411;29;20207;-64
2022/11/30 05:52:44;;;;;;;15.07;11.73;;;;;;;;;;4872147;29;20627;-64
2022/11/30 05:55:11;;;;;;;17.40;13.47;;;;;;;;;;4872787;29;20202;-64
2022/11/30 05:57:37;;;;;;;16.63;13.13;;;;;;;;;;4866722;29;22158;-64
2022/11/30 06:00:05;;;;;;;18.50;13.53;;;;;;;;;;4865786;29;20247;-64
2022/11/30 06:02:31;;;;;;;19.00;15.10;;;;;;;;;;4869246;29;20677;-64
2022/11/30 06:04:57;;;;;;;16.27;13.60;;;;;;;;;;4870039;29;20243;-64
2022/11/30 06:07:23;;;;;;;16.57;12.97;;;;;;;;;;4871803;29;20190;-64
2022/11/30 06:09:49;;;;;;;17.37;13.57;;;;;;;;;;4873310;29;20191;-64
2022/11/30 06:12:21;;;;;;;16.97;13.10;;;;;;;;;;4865344;29;20191;-64
2022/11/30 06:14:49;;;;;;;18.00;13.40;;;;;;;;;;4865752;29;20622;-64
2022/11/30 06:17:15;;;;;;;16.80;12.70;;;;;;;;;;4870094;29;20266;-64
2022/11/30 06:19:42;;;;;;;17.43;13.10;;;;;;;;;;4860855;29;20222;-64
2022/11/30 06:22:08;;;;;;;16.17;12.60;;;;;;;;;;4866214;29;20195;-64
2022/11/30 06:24:34;;;;;;;19.30;14.43;;;;;;;;;;4868725;29;20259;-64
2022/11/30 06:27:06;;;;;;;20.47;13.93;;;;;;;;;;4871481;29;20209;-65
2022/11/30 06:29:32;;;;;;;19.30;14.03;;;;;;;;;;4869304;29;20219;-65
2022/11/30 06:31:58;;;;;;;18.03;14.33;;;;;;;;;;4858885;29;20195;-64
2022/11/30 06:34:24;;;;;;;18.43;13.63;;;;;;;;;;4869783;29;20194;-64
2022/11/30 06:36:50;;;;;;;16.87;13.90;;;;;;;;;;4870365;29;20199;-64
2022/11/30 06:39:16;;;;;;;20.87;14.77;;;;;;;;;;4870844;29;20211;-65
2022/11/30 06:41:42;;;;;;;18.60;14.50;;;;;;;;;;4862804;29;20187;-64
2022/11/30 06:44:09;;;;;;;20.13;14.90;;;;;;;;;;4870030;29;20658;-64
2022/11/30 06:46:35;;;;;;;16.83;13.37;;;;;;;;;;4870481;29;20215;-64
2022/11/30 06:49:02;;;;;;;18.87;14.17;;;;;;;;;;4871584;29;20183;-64
2022/11/30 06:51:28;;;;;;;19.77;15.37;;;;;;;;;;4855309;29;20431;-64
2022/11/30 06:53:54;;;;;;;19.80;14.17;;;;;;;;;;4869169;29;20195;-64
2022/11/30 06:56:20;;;;;;;20.80;15.23;;;;;;;;;;4866793;29;20191;-64
2022/11/30 06:58:46;;;;;;;20.07;15.60;;;;;;;;;;4866360;29;20710;-64
2022/11/30 07:01:13;;;;;;;20.13;14.93;;;;;;;;;;4866758;29;20184;-65
2022/11/30 07:03:40;;;;;;;19.33;14.90;;;;;;;;;;4873275;29;20183;-64
2022/11/30 07:06:13;;;;;;;21.23;15.73;;;;;;;;;;4872332;29;20654;-65
2022/11/30 07:08:40;;;;;;;22.07;16.13;;;;;;;;;;4872432;29;20243;-64
2022/11/30 07:11:06;;;;;;;19.33;13.70;;;;;;;;;;4863930;29;20286;-64
2022/11/30 07:13:33;;;;;;;20.17;15.90;;;;;;;;;;4851621;29;20237;-64
2022/11/30 07:15:59;;;;;;;20.70;15.13;;;;;;;;;;4870989;29;20244;-64
2022/11/30 07:18:25;;;;;;;18.80;14.53;;;;;;;;;;4870546;29;20210;-64
2022/11/30 07:20:51;;;;;;;23.43;16.30;;;;;;;;;;4850184;29;20195;-64
2022/11/30 07:26:05;;;;;;;18.63;14.83;;;;;;;;;;4867276;29;20729;-61
2022/11/30 07:28:32;;;;;;;21.03;15.53;;;;;;;;;;4856175;29;20234;-61
2022/11/30 07:30:58;;;;;;;19.83;15.57;;;;;;;;;;4866682;29;20296;-61
2022/11/30 07:33:24;;;;;;;20.10;15.47;;;;;;;;;;4853948;29;20191;-61
2022/11/30 07:35:52;;;;;;;21.57;15.23;;;;;;;;;;4871913;29;20178;-61
2022/11/30 07:38:18;;;;;;;19.80;15.13;;;;;;;;;;4869589;29;20187;-61
2022/11/30 07:40:44;;;;;;;17.50;14.03;;;;;;;;;;4868743;29;20187;-60
2022/11/30 07:43:10;;;;;;;20.03;14.90;;;;;;;;;;4870752;29;20550;-61
2022/11/30 07:45:36;;;;;;;18.40;14.07;;;;;;;;;;4872003;29;20195;-60
2022/11/30 07:48:02;;;;;;;19.97;14.63;;;;;;;;;;4870594;29;20225;-60
2022/11/30 07:50:28;;;;;;;18.77;14.67;;;;;;;;;;4868047;29;20255;-61
2022/11/30 07:52:54;;;;;;;18.03;13.90;;;;;;;;;;4871023;29;20211;-61
2022/11/30 07:55:22;;;;;;;16.97;12.53;;;;;;;;;;4853898;29;20176;-61
2022/11/30 07:57:49;;;;;;;18.60;15.00;;;;;;;;;;4869258;29;20658;-61
2022/11/30 08:00:15;;;;;;;17.97;13.43;;;;;;;;;;4867666;29;20225;-62
2022/11/30 08:02:41;;;;;;;17.50;13.70;;;;;;;;;;4864916;29;20630;-60
2022/11/30 08:05:10;;;;;;;20.00;14.90;;;;;;;;;;4868917;29;20190;-60
2022/11/30 08:07:36;;;;;;;17.10;12.47;;;;;;;;;;4868933;29;20401;-60
2022/11/30 08:10:02;;;;;;;17.73;14.57;;;;;;;;;;4855749;29;20638;-60
2022/11/30 08:12:28;;;;;;;18.23;14.20;;;;;;;;;;4848507;29;20211;-60
2022/11/30 08:14:54;;;;;;;17.57;14.07;;;;;;;;;;4854356;29;20714;-60
2022/11/30 08:17:20;;;;;;;20.10;14.40;;;;;;;;;;4853739;29;20172;-60
2022/11/30 08:19:46;;;;;;;21.43;13.93;;;;;;;;;;4857101;29;20202;-59
2022/11/30 08:22:12;;;;;;;17.97;13.73;;;;;;;;;;4885941;29;20171;-59
2022/11/30 08:24:38;;;;;;;20.80;14.90;;;;;;;;;;4870359;29;20705;-60
2022/11/30 08:27:04;;;;;;;18.63;14.87;;;;;;;;;;4877070;29;20183;-60
2022/11/30 08:29:30;;;;;;;21.43;16.00;;;;;;;;;;4876076;29;20187;-60
2022/11/30 08:31:56;;;;;;;19.87;14.73;;;;;;;;;;4875520;29;20234;-60
2022/11/30 08:34:23;;;;;;;21.47;15.33;;;;;;;;;;4867829;29;20194;-59
2022/11/30 08:36:50;;;;;;;21.07;15.70;;;;;;;;;;4874864;29;20214;-59
2022/11/30 08:39:16;;;;;;;19.43;14.73;;;;;;;;;;4875150;29;20640;-60
2022/11/30 08:41:43;;;;;;;18.97;13.87;;;;;;;;;;4873501;29;20631;-60
2022/11/30 08:44:09;;;;;;;19.90;14.10;;;;;;;;;;4857835;29;20199;-60
2022/11/30 08:46:36;;;;;;;23.43;16.77;;;;;;;;;;4871680;29;20179;-60
2022/11/30 08:49:02;;;;;;;20.13;15.97;;;;;;;;;;4875379;29;20385;-60
2022/11/30 08:51:28;;;;;;;19.50;15.20;;;;;;;;;;4874559;29;20262;-59
2022/11/30 08:53:54;;;;;;;19.83;15.60;;;;;;;;;;4874543;29;20299;-60
2022/11/30 08:56:22;;;;;;;19.80;15.43;;;;;;;;;;4874683;29;20231;-60
2022/11/30 08:58:48;;;;;;;20.07;14.83;;;;;;;;;;4874558;29;20211;-59
2022/11/30 09:01:15;;;;;;;22.10;16.03;;;;;;;;;;4875941;29;20375;-59
2022/11/30 09:03:42;;;;;;;23.27;17.03;;;;;;;;;;4875222;29;20650;-60
2022/11/30 09:06:16;;;;;;;23.47;17.60;;;;;;;;;;4874093;29;20658;-59
2022/11/30 09:08:43;;;;;;;21.07;16.43;;;;;;;;;;4875742;29;20218;-60
2022/11/30 09:11:13;;;;;;;26.20;18.23;;;;;;;;;;4873940;29;20823;-59
2022/11/30 09:13:39;;;;;;;21.53;16.27;;;;;;;;;;4857530;29;20187;-59
2022/11/30 09:16:06;;;;;;;23.37;16.83;;;;;;;;;;4874264;29;20277;-59
2022/11/30 09:18:32;;;;;;;26.27;18.13;;;;;;;;;;4874359;29;20206;-59
2022/11/30 09:21:08;;;;;;;23.63;18.43;;;;;;;;;;4874079;29;20164;-59
2022/11/30 09:23:34;;;;;;;24.33;17.83;;;;;;;;;;4875185;29;20657;-59
2022/11/30 09:26:01;;;;;;;23.73;17.00;;;;;;;;;;4874165;29;20190;-59
2022/11/30 09:28:31;;;;;;;27.37;18.93;;;;;;;;;;4885355;29;20268;-60
2022/11/30 09:31:01;;;;;;;28.37;20.47;;;;;;;;;;4893268;29;20191;-63
2022/11/30 09:33:27;;;;;;;26.03;18.77;;;;;;;;;;4864360;29;20199;-59
2022/11/30 09:36:00;;;;;;;27.20;20.13;;;;;;;;;;4856332;29;20198;-59
2022/11/30 09:38:26;;;;;;;30.70;20.73;;;;;;;;;;4857801;29;20211;-59
2022/11/30 09:40:57;;;;;;;26.80;19.90;;;;;;;;;;4874305;29;20175;-59
2022/11/30 09:43:32;;;;;;;31.03;21.57;;;;;;;;;;4856857;29;20275;-59
2022/11/30 09:46:01;;;;;;;27.00;20.30;;;;;;;;;;4873771;29;20658;-59
2022/11/30 09:48:27;;;;;;;24.40;19.17;;;;;;;;;;4868702;29;20226;-59
2022/11/30 09:50:54;;;;;;;29.07;19.70;;;;;;;;;;4856720;29;20203;-59
2022/11/30 09:53:41;;;;;;;24.17;18.17;;;;;;;;;;4874343;29;20171;-59
2022/11/30 09:56:33;;;;;;;31.87;20.47;;;;;;;;;;4873717;29;20716;-60
2022/11/30 09:59:06;;;;;;;26.97;20.47;;;;;;;;;;4870554;29;20301;-59
2022/11/30 10:01:33;;;;;;;25.63;19.90;;;;;;;;;;4869302;29;20179;-59
2022/11/30 10:04:00;;;;;;;26.77;18.93;;;;;;;;;;4871605;29;20198;-60
2022/11/30 10:06:32;;;;;;;29.37;19.60;;;;;;;;;;4873588;29;20529;-59
2022/11/30 10:09:03;;;;;;;26.80;18.43;;;;;;;;;;4874169;29;20232;-59
2022/11/30 10:11:41;;;;;;;26.13;18.50;;;;;;;;;;4874080;29;20187;-59
2022/11/30 10:14:17;;;;;;;26.10;17.80;;;;;;;;;;4865773;29;20213;-59
2022/11/30 10:16:56;;;;;;;27.37;18.70;;;;;;;;;;4873012;29;20753;-60
2022/11/30 10:19:41;;;;;;;22.70;17.20;;;;;;;;;;4872158;29;20225;-59
2022/11/30 10:22:27;;;;;;;23.93;18.90;;;;;;;;;;4870090;29;20187;-59
2022/11/30 10:24:56;;;;;;;23.37;17.23;;;;;;;;;;4871977;29;20801;-59
2022/11/30 10:27:28;;;;;;;24.43;17.20;;;;;;;;;;4874788;29;20191;-59
2022/11/30 10:29:55;;;;;;;26.77;19.67;;;;;;;;;;4872592;29;20278;-59
2022/11/30 10:32:24;;;;;;;22.53;17.77;;;;;;;;;;4871996;29;20198;-59
2022/11/30 10:35:01;;;;;;;26.10;17.93;;;;;;;;;;4873300;29;20202;-59
2022/11/30 10:37:35;;;;;;;23.97;16.87;;;;;;;;;;4868284;29;20233;-59
2022/11/30 10:40:03;;;;;;;23.60;17.43;;;;;;;;;;4856371;29;20309;-59
2022/11/30 10:42:36;;;;;;;25.27;18.70;;;;;;;;;;4872510;29;20191;-59
2022/11/30 10:45:08;;;;;;;22.77;17.10;;;;;;;;;;4872552;29;20239;-60
2022/11/30 10:47:38;;;;;;;24.27;17.40;;;;;;;;;;4869670;29;20191;-60
2022/11/30 10:50:05;;;;;;;23.97;17.80;;;;;;;;;;4872382;29;20195;-59
2022/11/30 10:52:54;;;;;;;23.50;17.17;;;;;;;;;;4870109;29;20187;-59
2022/11/30 10:55:21;;;;;;;25.33;16.80;;;;;;;;;;4863773;29;20686;-60
2022/11/30 10:57:48;;;;;;;23.93;17.23;;;;;;;;;;4873281;29;20193;-59
2022/11/30 11:00:16;;;;;;;25.23;17.53;;;;;;;;;;4873498;29;20202;-59
2022/11/30 11:02:44;;;;;;;27.03;19.30;;;;;;;;;;4873256;29;20203;-60
2022/11/30 11:05:13;;;;;;;36.33;18.03;;;;;;;;;;4856918;29;20698;-59
2022/11/30 11:07:54;;;;;;;25.57;17.27;;;;;;;;;;4855133;29;20191;-59
2022/11/30 11:10:33;;;;;;;28.73;16.53;;;;;;;;;;4872573;29;20191;-61
2022/11/30 11:12:59;;;;;;;26.67;15.80;;;;;;;;;;4873388;29;20704;-60
2022/11/30 11:15:27;;;;;;;26.47;18.53;;;;;;;;;;4882801;29;20179;-59
2022/11/30 11:17:53;;;;;;;23.00;16.90;;;;;;;;;;4872100;29;20197;-60
2022/11/30 11:20:30;;;;;;;27.77;17.13;;;;;;;;;;4873201;29;20210;-60
2022/11/30 11:22:56;;;;;;;32.47;16.43;;;;;;;;;;4871076;29;20179;-59
2022/11/30 11:25:25;;;;;;;27.07;16.27;;;;;;;;;;4869772;29;20217;-58
2022/11/30 11:27:58;;;;;;;27.13;16.70;;;;;;;;;;4871457;29;20227;-59
2022/11/30 11:30:24;;;;;;;29.53;16.90;;;;;;;;;;4872938;29;20677;-58
2022/11/30 11:33:01;;;;;;;23.07;16.10;;;;;;;;;;4872120;29;20262;-59
2022/11/30 11:35:34;;;;;;;28.30;17.33;;;;;;;;;;4870818;29;20187;-58
2022/11/30 11:38:00;;;;;;;24.20;16.00;;;;;;;;;;4870032;29;20175;-59
2022/11/30 11:40:26;;;;;;;26.07;16.93;;;;;;;;;;4872244;29;20614;-58
2022/11/30 11:42:57;;;;;;;28.70;16.47;;;;;;;;;;4877064;29;20545;-59
2022/11/30 11:45:28;;;;;;;22.90;15.20;;;;;;;;;;4873114;29;20190;-58
2022/11/30 11:47:58;;;;;;;23.47;15.57;;;;;;;;;;4872572;29;20175;-59
2022/11/30 11:50:32;;;;;;;23.67;15.13;;;;;;;;;;4871741;29;20662;-59
2022/11/30 11:53:12;;;;;;;22.13;15.33;;;;;;;;;;4855821;29;20179;-59
2022/11/30 11:55:39;;;;;;;24.63;16.23;;;;;;;;;;4876483;29;20414;-58
2022/11/30 11:58:05;;;;;;;21.43;15.30;;;;;;;;;;4870973;29;20191;-58
2022/11/30 12:00:31;;;;;;;21.37;14.40;;;;;;;;;;4871439;29;20211;-59
2022/11/30 12:03:16;;;;;;;19.23;14.67;;;;;;;;;;4872604;29;20258;-58
2022/11/30 12:05:49;;;;;;;21.20;14.90;;;;;;;;;;4867672;29;20458;-59
2022/11/30 12:08:15;;;;;;;21.73;14.87;;;;;;;;;;4873033;29;20243;-58
2022/11/30 12:10:55;;;;;;;22.23;15.47;;;;;;;;;;4877293;29;20506;-59
2022/11/30 12:13:29;;;;;;;21.13;15.07;;;;;;;;;;4856695;29;20187;-59
2022/11/30 12:16:14;;;;;;;19.17;13.83;;;;;;;;;;4853481;29;20163;-59
2022/11/30 12:18:52;;;;;;;22.63;14.23;;;;;;;;;;4889355;29;20202;-59
2022/11/30 12:21:28;;;;;;;20.30;14.00;;;;;;;;;;4858749;29;20190;-59
2022/11/30 12:24:17;;;;;;;19.10;14.03;;;;;;;;;;4859045;29;20271;-59
2022/11/30 12:27:10;;;;;;;20.63;14.07;;;;;;;;;;4865649;29;20187;-59
2022/11/30 12:29:44;;;;;;;18.07;13.40;;;;;;;;;;4857453;29;20234;-59
2022/11/30 12:32:23;;;;;;;20.97;14.93;;;;;;;;;;4889811;29;20260;-59
2022/11/30 12:34:52;;;;;;;18.53;13.57;;;;;;;;;;4886447;29;20183;-59
2022/11/30 12:37:22;;;;;;;21.17;13.97;;;;;;;;;;4871549;29;20190;-58
2022/11/30 12:39:48;;;;;;;18.23;13.47;;;;;;;;;;4872245;29;20670;-59
2022/11/30 12:42:16;;;;;;;16.20;12.90;;;;;;;;;;4875011;29;20172;-59
2022/11/30 12:45:01;;;;;;;18.53;13.57;;;;;;;;;;4863241;29;20225;-59
2022/11/30 12:47:30;;;;;;;18.63;12.80;;;;;;;;;;4878294;29;20163;-59
2022/11/30 12:49:59;;;;;;;20.40;14.93;;;;;;;;;;4879772;29;20217;-59
2022/11/30 12:52:38;;;;;;;18.63;13.70;;;;;;;;;;4880770;29;20970;-59
2022/11/30 12:55:10;;;;;;;18.40;13.30;;;;;;;;;;4885300;29;20199;-60
2022/11/30 12:57:57;;;;;;;19.77;14.13;;;;;;;;;;4876928;29;20175;-58
2022/11/30 13:00:24;;;;;;;18.67;13.03;;;;;;;;;;4882864;29;20223;-59
2022/11/30 13:02:50;;;;;;;20.27;13.77;;;;;;;;;;4876257;29;20175;-59
2022/11/30 13:05:35;;;;;;;18.50;13.70;;;;;;;;;;4876073;29;20538;-59
2022/11/30 13:08:04;;;;;;;17.83;12.93;;;;;;;;;;4871337;29;20471;-59
2022/11/30 13:10:37;;;;;;;18.27;12.63;;;;;;;;;;4875459;29;20191;-59
2022/11/30 13:13:04;;;;;;;20.77;13.17;;;;;;;;;;4877327;29;20187;-59
2022/11/30 13:15:33;;;;;;;20.07;14.63;;;;;;;;;;4893107;29;20671;-58
2022/11/30 13:18:00;;;;;;;19.53;13.33;;;;;;;;;;4890080;29;20277;-59
2022/11/30 13:20:45;;;;;;;20.60;13.67;;;;;;;;;;4885344;29;20259;-59
2022/11/30 13:23:14;;;;;;;17.83;13.60;;;;;;;;;;4879280;29;20641;-59
2022/11/30 13:25:58;;;;;;;21.07;14.17;;;;;;;;;;4877068;29;20267;-59
2022/11/30 13:28:37;;;;;;;17.90;12.87;;;;;;;;;;4875654;29;20223;-59
2022/11/30 13:31:22;;;;;;;19.23;13.30;;;;;;;;;;4864294;29;20256;-59
2022/11/30 13:33:54;;;;;;;14.27;12.37;;;;;;;;;;4869947;29;20226;-58
2022/11/30 13:36:23;;;;;;;20.60;13.93;;;;;;;;;;4887018;29;20190;-58
2022/11/30 13:39:08;;;;;;;18.27;12.53;;;;;;;;;;4879240;29;20250;-59
2022/11/30 13:41:35;;;;;;;19.20;12.87;;;;;;;;;;4862400;29;20316;-59
2022/11/30 13:44:01;;;;;;;19.90;13.67;;;;;;;;;;4877305;29;20175;-59
2022/11/30 13:46:28;;;;;;;17.83;12.87;;;;;;;;;;4884534;29;20191;-60
2022/11/30 13:49:15;;;;;;;16.03;11.73;;;;;;;;;;4886709;29;20193;-59
2022/11/30 13:51:41;;;;;;;18.23;13.13;;;;;;;;;;4879022;29;20176;-59
2022/11/30 13:54:33;;;;;;;16.87;12.87;;;;;;;;;;4884989;29;20599;-59
2022/11/30 13:57:00;;;;;;;18.13;13.10;;;;;;;;;;4881386;29;20724;-58
2022/11/30 13:59:25;;;;;;;18.47;13.87;;;;;;;;;;4886070;29;20206;-59
2022/11/30 14:01:52;;;;;;;16.77;11.53;;;;;;;;;;4875299;29;20179;-59
2022/11/30 14:04:19;;;;;;;18.53;13.37;;;;;;;;;;4879222;29;20198;-60
2022/11/30 14:06:49;;;;;;;16.60;12.67;;;;;;;;;;4881199;29;20604;-59
2022/11/30 14:09:17;;;;;;;21.67;14.27;;;;;;;;;;4888599;29;20263;-60
2022/11/30 14:11:44;;;;;;;16.43;13.50;;;;;;;;;;4881602;29;20201;-59
2022/11/30 14:14:29;;;;;;;16.93;13.13;;;;;;;;;;4878131;29;20214;-59
2022/11/30 14:16:56;;;;;;;19.17;13.47;;;;;;;;;;4867478;29;20187;-60
2022/11/30 14:19:22;;;;;;;17.83;12.27;;;;;;;;;;4875989;29;20204;-59
2022/11/30 14:21:48;;;;;;;19.33;12.53;;;;;;;;;;4872605;29;20283;-60
2022/11/30 14:24:20;;;;;;;17.27;12.70;;;;;;;;;;4885029;29;20662;-60
2022/11/30 14:26:47;;;;;;;15.90;12.83;;;;;;;;;;4864070;29;20262;-59
2022/11/30 14:29:29;;;;;;;16.53;12.37;;;;;;;;;;4875567;29;20351;-59
2022/11/30 14:32:00;;;;;;;17.07;11.60;;;;;;;;;;4858475;29;20242;-58